createdAt,value
2022-09-18T00:00:49.974Z,71.16
2022-09-18T00:03:54.222Z,70.89
2022-09-18T00:06:56.258Z,71.20
2022-09-18T00:09:58.288Z,71.42
2022-09-18T00:13:00.443Z,71.85
2022-09-18T00:16:02.869Z,72.38
2022-09-18T00:19:05.536Z,72.13
2022-09-18T00:22:07.592Z,72.51
2022-09-18T00:25:09.804Z,72.92
2022-09-18T00:28:11.827Z,72.84
2022-09-18T00:31:20.487Z,74.02
2022-09-18T00:34:22.603Z,73.89
2022-09-18T00:37:24.668Z,73.49
2022-09-18T00:40:26.839Z,74.12
2022-09-18T00:43:32.685Z,74.43
2022-09-18T00:46:36.200Z,74.32
2022-09-18T00:49:49.420Z,74.22
2022-09-18T00:53:02.053Z,74.30
2022-09-18T00:56:04.215Z,75.21
2022-09-18T00:59:06.271Z,75.35
2022-09-18T01:02:08.566Z,75.05
2022-09-18T01:05:10.857Z,75.42
2022-09-18T01:09:00.151Z,75.68
2022-09-18T01:12:26.122Z,75.23
2022-09-18T01:15:41.469Z,75.18
2022-09-18T01:19:10.761Z,74.59
2022-09-18T01:22:44.040Z,74.75
2022-09-18T01:26:33.047Z,75.12
2022-09-18T01:29:52.071Z,75.15
2022-09-18T01:33:00.961Z,74.86
2022-09-18T01:36:07.623Z,74.84
2022-09-18T01:39:39.942Z,74.62
2022-09-18T01:42:43.298Z,74.04
2022-09-18T01:45:47.898Z,74.13
2022-09-18T01:48:58.418Z,74.43
2022-09-18T01:52:28.021Z,74.39
2022-09-18T01:55:30.264Z,74.17
2022-09-18T01:58:33.565Z,73.92
2022-09-18T02:01:36.089Z,73.89
2022-09-18T02:04:39.135Z,74.07
2022-09-18T02:08:11.693Z,74.67
2022-09-18T02:11:15.216Z,74.85
2022-09-18T02:14:30.154Z,75.45
2022-09-18T02:18:13.995Z,75.38
2022-09-18T02:21:20.652Z,75.61
2022-09-18T02:24:26.283Z,75.48
2022-09-18T02:27:28.334Z,75.61
2022-09-18T02:30:31.870Z,75.50
2022-09-18T02:33:36.685Z,75.25
2022-09-18T02:36:45.525Z,75.19
2022-09-18T02:40:03.698Z,75.31
2022-09-18T02:43:17.792Z,75.77
2022-09-18T02:46:37.840Z,75.17
2022-09-18T02:50:13.598Z,75.28
2022-09-18T02:53:50.267Z,75.25
2022-09-18T02:57:44.122Z,74.99
2022-09-18T03:00:47.632Z,75.61
2022-09-18T03:03:52.693Z,75.70
2022-09-18T03:07:00.990Z,75.66
2022-09-18T03:10:03.630Z,75.48
2022-09-18T03:13:07.018Z,76.18
2022-09-18T03:16:09.327Z,75.67
2022-09-18T03:19:12.111Z,75.93
2022-09-18T03:22:14.246Z,75.52
2022-09-18T03:25:17.520Z,75.45
2022-09-18T03:28:19.868Z,76.01
2022-09-18T03:31:22.112Z,75.16
2022-09-18T03:34:24.210Z,76.11
2022-09-18T03:37:26.470Z,76.66
2022-09-18T03:40:29.385Z,76.53
2022-09-18T03:43:32.321Z,76.12
2022-09-18T03:46:34.469Z,76.65
2022-09-18T03:49:38.268Z,76.25
2022-09-18T03:52:40.347Z,76.13
2022-09-18T03:56:04.359Z,76.38
2022-09-18T03:59:24.617Z,76.27
2022-09-18T04:02:29.383Z,75.76
2022-09-18T04:06:09.800Z,75.50
2022-09-18T04:09:32.093Z,75.36
2022-09-18T04:12:35.154Z,75.41
2022-09-18T04:15:51.129Z,75.08
2022-09-18T04:18:53.253Z,75.79
2022-09-18T04:21:57.267Z,76.18
2022-09-18T04:24:59.427Z,75.59
2022-09-18T04:28:02.342Z,76.00
2022-09-18T04:31:05.466Z,75.73
2022-09-18T04:34:07.621Z,75.84
2022-09-18T04:37:10.749Z,75.63
2022-09-18T04:40:14.206Z,75.76
2022-09-18T04:43:16.883Z,75.66
2022-09-18T04:46:19.985Z,75.39
2022-09-18T04:49:22.371Z,75.34
2022-09-18T04:52:25.071Z,76.01
2022-09-18T04:55:27.735Z,75.43
2022-09-18T04:58:31.031Z,75.99
2022-09-18T05:01:36.413Z,75.75
2022-09-18T05:04:43.978Z,75.43
2022-09-18T05:07:59.663Z,75.42
2022-09-18T05:11:02.203Z,75.46
2022-09-18T05:14:08.099Z,75.51
2022-09-18T05:17:10.774Z,76.08
2022-09-18T05:20:15.034Z,76.54
2022-09-18T05:23:17.809Z,77.63
2022-09-18T05:26:19.877Z,78.02
2022-09-18T05:29:22.090Z,78.02
2022-09-18T05:32:26.046Z,78.43
2022-09-18T05:35:30.646Z,78.57
2022-09-18T05:38:34.147Z,78.16
2022-09-18T05:41:37.526Z,78.04
2022-09-18T05:44:39.659Z,78.07
2022-09-18T05:48:00.851Z,78.10
2022-09-18T05:51:05.257Z,77.84
2022-09-18T05:54:07.462Z,77.76
2022-09-18T05:57:16.050Z,77.85
2022-09-18T06:00:24.790Z,77.16
2022-09-18T06:03:36.162Z,77.66
2022-09-18T06:06:38.352Z,77.67
2022-09-18T06:09:40.468Z,77.38
2022-09-18T06:12:42.728Z,77.71
2022-09-18T06:15:50.292Z,77.62
2022-09-18T06:18:56.847Z,77.23
2022-09-18T06:21:58.917Z,77.17
2022-09-18T06:25:01.546Z,77.36
2022-09-18T06:28:07.791Z,77.55
2022-09-18T06:31:10.426Z,77.88
2022-09-18T06:34:36.636Z,78.68
2022-09-18T06:37:42.058Z,78.43
2022-09-18T06:40:58.093Z,78.72
2022-09-18T06:44:08.698Z,78.98
2022-09-18T06:47:24.147Z,79.13
2022-09-18T06:50:26.320Z,78.69
2022-09-18T06:53:28.640Z,78.68
2022-09-18T06:56:36.000Z,78.77
2022-09-18T06:59:38.598Z,78.34
2022-09-18T07:02:42.217Z,78.47
2022-09-18T07:06:10.339Z,78.42
2022-09-18T07:09:21.994Z,78.40
2022-09-18T07:12:37.622Z,77.77
2022-09-18T07:15:41.702Z,77.45
2022-09-18T07:18:48.349Z,77.21
2022-09-18T07:21:53.927Z,77.36
2022-09-18T07:24:56.043Z,76.40
2022-09-18T07:28:08.233Z,75.99
2022-09-18T07:31:16.698Z,74.67
2022-09-18T07:34:20.032Z,75.59
2022-09-18T07:37:22.343Z,74.83
2022-09-18T07:40:33.858Z,73.87
2022-09-18T07:43:43.771Z,73.05
2022-09-18T07:46:46.044Z,72.16
2022-09-18T07:49:48.270Z,71.64
2022-09-18T07:52:56.461Z,71.31
2022-09-18T07:56:10.021Z,71.93
2022-09-18T07:59:12.635Z,72.43
2022-09-18T08:02:15.272Z,71.71
2022-09-18T08:05:17.602Z,72.29
2022-09-18T08:08:30.095Z,71.70
2022-09-18T08:11:52.690Z,70.58
2022-09-18T08:15:02.486Z,70.55
2022-09-18T08:18:22.865Z,70.38
2022-09-18T08:21:43.289Z,71.18
2022-09-18T08:24:48.019Z,70.98
2022-09-18T08:27:50.449Z,70.24
2022-09-18T08:31:01.936Z,69.56
2022-09-18T08:34:04.229Z,69.27
2022-09-18T08:37:07.055Z,69.87
2022-09-18T08:41:05.817Z,68.75
2022-09-18T08:44:18.456Z,69.25
2022-09-18T08:47:43.380Z,67.75
2022-09-18T08:51:16.949Z,67.24
2022-09-18T08:54:49.292Z,67.68
2022-09-18T08:58:24.604Z,66.76
2022-09-18T09:01:43.378Z,66.17
2022-09-18T09:04:49.489Z,65.41
2022-09-18T09:08:23.239Z,65.60
2022-09-18T09:12:24.296Z,64.97
2022-09-18T09:16:01.582Z,65.57
2022-09-18T09:19:45.231Z,65.46
2022-09-18T09:23:04.164Z,64.78
2022-09-18T09:26:21.809Z,63.88
2022-09-18T09:29:45.042Z,62.75
2022-09-18T09:33:27.947Z,62.81
2022-09-18T09:36:42.305Z,63.30
2022-09-18T09:39:52.698Z,62.53
2022-09-18T09:43:01.216Z,63.28
2022-09-18T09:46:35.807Z,61.76
2022-09-18T09:49:46.652Z,62.92
2022-09-18T09:52:48.920Z,62.47
2022-09-18T09:56:16.143Z,62.36
2022-09-18T09:59:47.863Z,61.93
2022-09-18T10:03:05.144Z,61.86
2022-09-18T10:06:29.695Z,61.99
2022-09-18T10:09:43.743Z,62.25
2022-09-18T10:13:05.390Z,62.71
2022-09-18T10:16:20.328Z,62.19
2022-09-18T10:19:28.540Z,61.93
2022-09-18T10:22:30.934Z,60.60
2022-09-18T10:25:54.204Z,59.65
2022-09-18T10:28:56.926Z,60.39
2022-09-18T10:32:01.070Z,60.50
2022-09-18T10:35:29.182Z,60.01
2022-09-18T10:38:34.359Z,61.90
2022-09-18T10:42:07.170Z,60.96
2022-09-18T10:45:29.133Z,59.95
2022-09-18T10:48:53.146Z,61.62
2022-09-18T10:52:25.302Z,59.76
2022-09-18T10:55:28.367Z,61.14
2022-09-18T10:58:39.189Z,62.34
2022-09-18T11:01:44.658Z,62.19
2022-09-18T11:04:48.105Z,62.71
2022-09-18T11:07:55.055Z,63.11
2022-09-18T11:11:06.862Z,61.45
2022-09-18T11:14:30.184Z,61.78
2022-09-18T11:17:47.280Z,62.57
2022-09-18T11:20:50.030Z,63.46
2022-09-18T11:24:06.927Z,63.10
2022-09-18T11:27:46.187Z,62.06
2022-09-18T11:31:04.112Z,61.98
2022-09-18T11:34:47.181Z,62.62
2022-09-18T11:37:53.093Z,61.32
2022-09-18T11:40:57.523Z,62.24
2022-09-18T11:44:14.007Z,62.61
2022-09-18T11:47:41.264Z,60.03
2022-09-18T11:50:44.260Z,58.91
2022-09-18T11:53:55.426Z,59.21
2022-09-18T11:57:00.807Z,60.28
2022-09-18T12:00:16.234Z,58.29
2022-09-18T12:03:29.046Z,59.16
2022-09-18T12:06:58.799Z,59.53
2022-09-18T12:10:31.486Z,60.05
2022-09-18T12:13:40.023Z,60.29
2022-09-18T12:16:51.496Z,58.83
2022-09-18T12:19:58.561Z,57.79
2022-09-18T12:23:02.791Z,58.20
2022-09-18T12:26:12.476Z,58.70
2022-09-18T12:29:57.186Z,60.72
2022-09-18T12:33:26.623Z,59.80
2022-09-18T12:36:47.326Z,59.72
2022-09-18T12:40:04.201Z,58.51
2022-09-18T12:43:38.075Z,55.70
2022-09-18T12:46:59.886Z,55.98
2022-09-18T12:50:15.682Z,56.00
2022-09-18T12:54:06.959Z,56.46
2022-09-18T12:57:36.907Z,59.81
2022-09-18T13:00:41.163Z,57.83
2022-09-18T13:03:43.246Z,58.40
2022-09-18T13:06:55.407Z,57.63
2022-09-18T13:10:42.760Z,55.73
2022-09-18T13:14:05.720Z,57.07
2022-09-18T13:17:19.918Z,56.23
2022-09-18T13:20:34.439Z,57.87
2022-09-18T13:23:40.770Z,57.24
2022-09-18T13:26:42.909Z,57.25
2022-09-18T13:29:54.090Z,56.75
2022-09-18T13:32:57.761Z,57.28
2022-09-18T13:35:59.866Z,56.03
2022-09-18T13:39:14.829Z,57.39
2022-09-18T13:42:34.167Z,56.07
2022-09-18T13:45:37.975Z,56.56
2022-09-18T13:48:39.931Z,57.06
2022-09-18T13:51:42.084Z,54.79
2022-09-18T13:55:20.126Z,55.47
2022-09-18T13:58:31.707Z,54.13
2022-09-18T14:01:42.989Z,54.38
2022-09-18T14:04:48.475Z,53.72
2022-09-18T14:08:04.307Z,54.78
2022-09-18T14:11:16.255Z,55.93
2022-09-18T14:14:22.887Z,56.47
2022-09-18T14:17:25.798Z,56.12
2022-09-18T14:20:27.898Z,55.02
2022-09-18T14:23:35.890Z,56.70
2022-09-18T14:26:38.549Z,55.95
2022-09-18T14:29:40.871Z,56.07
2022-09-18T14:33:03.659Z,54.26
2022-09-18T14:36:06.481Z,54.60
2022-09-18T14:39:35.807Z,55.83
2022-09-18T14:42:40.136Z,55.72
2022-09-18T14:45:42.272Z,55.10
2022-09-18T14:48:44.363Z,53.16
2022-09-18T14:52:03.186Z,51.25
2022-09-18T14:55:12.211Z,46.98
2022-09-18T14:58:17.927Z,47.53
2022-09-18T15:01:31.604Z,44.09
2022-09-18T15:04:33.693Z,44.10
2022-09-18T15:07:38.166Z,43.04
2022-09-18T15:10:40.335Z,47.99
2022-09-18T15:13:42.443Z,51.39
2022-09-18T15:16:44.739Z,52.57
2022-09-18T15:20:22.731Z,52.04
2022-09-18T15:23:38.875Z,46.03
2022-09-18T15:26:48.256Z,44.29
2022-09-18T15:30:06.751Z,45.54
2022-09-18T15:33:18.815Z,48.03
2022-09-18T15:36:35.480Z,52.75
2022-09-18T15:39:42.509Z,56.18
2022-09-18T15:42:59.180Z,55.33
2022-09-18T15:46:11.857Z,53.45
2022-09-18T15:49:30.659Z,57.18
2022-09-18T15:52:55.116Z,57.78
2022-09-18T15:56:02.202Z,58.50
2022-09-18T15:59:07.252Z,59.38
2022-09-18T16:02:37.750Z,59.93
2022-09-18T16:05:40.556Z,60.04
2022-09-18T16:08:42.670Z,59.99
2022-09-18T16:11:46.141Z,60.45
2022-09-18T16:15:11.251Z,61.49
2022-09-18T16:18:16.209Z,62.43
2022-09-18T16:21:18.670Z,61.88
2022-09-18T16:24:30.867Z,62.07
2022-09-18T16:27:32.901Z,62.47
2022-09-18T16:30:37.315Z,61.64
2022-09-18T16:34:27.495Z,62.86
2022-09-18T16:37:31.000Z,61.39
2022-09-18T16:40:33.262Z,61.41
2022-09-18T16:43:35.876Z,61.64
2022-09-18T16:46:49.638Z,61.66
2022-09-18T16:49:51.786Z,63.91
2022-09-18T16:52:54.037Z,64.24
2022-09-18T16:55:57.360Z,63.89
2022-09-18T16:59:00.975Z,64.19
2022-09-18T17:02:04.508Z,62.48
2022-09-18T17:05:07.697Z,63.72
2022-09-18T17:08:09.867Z,63.93
2022-09-18T17:11:12.018Z,63.64
2022-09-18T17:14:14.066Z,63.11
2022-09-18T17:17:16.305Z,63.33
2022-09-18T17:20:18.934Z,62.82
2022-09-18T17:23:21.023Z,62.84
2022-09-18T17:26:23.316Z,63.68
2022-09-18T17:29:25.500Z,62.83
2022-09-18T17:32:27.546Z,63.95
2022-09-18T17:35:29.655Z,63.02
2022-09-18T17:38:33.891Z,63.43
2022-09-18T17:41:35.992Z,63.78
2022-09-18T17:44:38.074Z,63.41
2022-09-18T17:47:40.127Z,64.50
2022-09-18T17:50:42.163Z,63.25
2022-09-18T17:53:45.764Z,62.39
2022-09-18T17:56:47.859Z,62.82
2022-09-18T17:59:49.907Z,62.36
2022-09-18T18:02:52.107Z,63.06
2022-09-18T18:05:58.255Z,62.38
2022-09-18T18:09:00.710Z,62.66
2022-09-18T18:12:03.410Z,64.46
2022-09-18T18:15:06.127Z,63.91
2022-09-18T18:18:08.237Z,64.44
2022-09-18T18:21:10.750Z,63.87
2022-09-18T18:24:16.938Z,62.39
2022-09-18T18:27:21.070Z,63.53
2022-09-18T18:30:24.155Z,63.30
2022-09-18T18:33:26.221Z,66.87
2022-09-18T18:36:30.551Z,65.17
2022-09-18T18:39:32.668Z,63.29
2022-09-18T18:42:34.702Z,65.94
2022-09-18T18:45:37.499Z,64.09
2022-09-18T18:48:40.736Z,65.75
2022-09-18T18:51:48.126Z,64.50
2022-09-18T18:54:50.207Z,61.47
2022-09-18T18:57:52.730Z,61.30
2022-09-18T19:00:55.544Z,61.65
2022-09-18T19:04:09.354Z,63.41
2022-09-18T19:07:12.001Z,64.91
2022-09-18T19:10:14.992Z,64.11
2022-09-18T19:13:17.307Z,68.61
2022-09-18T19:16:19.839Z,67.71
2022-09-18T19:19:23.704Z,69.91
2022-09-18T19:22:25.813Z,70.00
2022-09-18T19:25:27.990Z,69.87
2022-09-18T19:28:30.787Z,69.36
2022-09-18T19:31:34.133Z,67.62
2022-09-18T19:34:36.289Z,67.66
2022-09-18T19:37:38.355Z,68.25
2022-09-18T19:40:40.569Z,70.94
2022-09-18T19:43:42.700Z,72.01
2022-09-18T19:46:46.259Z,71.93
2022-09-18T19:49:49.847Z,71.88
2022-09-18T19:52:52.072Z,71.54
2022-09-18T19:55:54.294Z,71.73
2022-09-18T19:58:56.362Z,71.27
2022-09-18T20:01:58.491Z,71.27
2022-09-18T20:05:01.993Z,69.89
2022-09-18T20:08:06.410Z,69.85
2022-09-18T20:11:08.790Z,68.03
2022-09-18T20:14:11.208Z,68.37
2022-09-18T20:17:13.605Z,67.81
2022-09-18T20:20:16.542Z,68.23
2022-09-18T20:23:18.962Z,67.23
2022-09-18T20:26:21.021Z,67.62
2022-09-18T20:29:23.104Z,67.38
2022-09-18T20:32:25.178Z,67.82
2022-09-18T20:35:27.218Z,66.13
2022-09-18T20:38:33.037Z,64.13
2022-09-18T20:41:35.726Z,64.75
2022-09-18T20:44:38.197Z,64.62
2022-09-18T20:47:40.342Z,65.30
2022-09-18T20:50:43.231Z,65.92
2022-09-18T20:53:46.493Z,67.13
2022-09-18T20:56:48.596Z,66.98
2022-09-18T20:59:51.161Z,67.28
2022-09-18T21:02:53.411Z,68.36
2022-09-18T21:06:12.768Z,69.98
2022-09-18T21:09:17.671Z,70.05
2022-09-18T21:12:19.818Z,68.84
2022-09-18T21:15:21.847Z,69.22
2022-09-18T21:18:24.013Z,67.95
2022-09-18T21:21:27.482Z,67.64
2022-09-18T21:24:30.735Z,67.46
2022-09-18T21:27:32.787Z,67.89
2022-09-18T21:30:34.851Z,68.21
2022-09-18T21:33:40.730Z,68.31
2022-09-18T21:36:46.022Z,68.53
2022-09-18T21:39:48.161Z,68.83
2022-09-18T21:42:50.698Z,67.75
2022-09-18T21:45:52.752Z,68.14
2022-09-18T21:48:55.924Z,67.91
2022-09-18T21:52:04.331Z,68.79
2022-09-18T21:55:06.906Z,68.99
2022-09-18T21:58:08.999Z,68.24
2022-09-18T22:01:19.644Z,67.34
2022-09-18T22:04:26.197Z,67.30
2022-09-18T22:07:28.990Z,67.68
2022-09-18T22:10:31.127Z,68.11
2022-09-18T22:13:33.258Z,68.55
2022-09-18T22:16:35.556Z,71.11
2022-09-18T22:19:41.306Z,69.47
2022-09-18T22:22:43.993Z,68.29
2022-09-18T22:25:46.075Z,67.03
2022-09-18T22:28:56.223Z,67.61
2022-09-18T22:31:59.544Z,68.09
2022-09-18T22:35:01.675Z,68.62
2022-09-18T22:38:03.778Z,68.24
2022-09-18T22:41:06.810Z,67.93
2022-09-18T22:44:09.348Z,67.26
2022-09-18T22:47:11.429Z,66.92
2022-09-18T22:50:13.564Z,66.20
2022-09-18T22:53:15.688Z,65.25
2022-09-18T22:56:18.611Z,64.78
2022-09-18T22:59:22.512Z,64.79
2022-09-18T23:02:24.697Z,64.54
2022-09-18T23:05:27.183Z,64.67
2022-09-18T23:08:31.867Z,64.50
2022-09-18T23:11:34.582Z,65.27
2022-09-18T23:14:36.703Z,64.73
2022-09-18T23:17:38.840Z,64.67
2022-09-18T23:20:41.010Z,65.21
2022-09-18T23:23:44.198Z,65.67
2022-09-18T23:26:47.879Z,65.50
2022-09-18T23:29:50.631Z,65.15
2022-09-18T23:32:52.727Z,66.35
2022-09-18T23:35:54.985Z,66.26
2022-09-18T23:39:05.219Z,66.67
2022-09-18T23:42:08.880Z,66.99
2022-09-18T23:45:11.253Z,66.93
2022-09-18T23:48:13.302Z,67.44
2022-09-18T23:51:16.176Z,68.24
2022-09-18T23:54:24.017Z,67.62
2022-09-18T23:57:26.793Z,66.44
